sensor_id;sensor_type;location;lat;lon;timestamp;pressure;altitude;pressure_sealevel;temperature;humidity
9746;BME280;4912;50.836;12.958;2023-12-22T00:00:28;95464.22;;;5.73;82.51
9746;BME280;4912;50.836;12.958;2023-12-22T00:02:59;95462.72;;;5.72;82.53
9746;BME280;4912;50.836;12.958;2023-12-22T00:05:30;95464.50;;;5.75;82.13
9746;BME280;4912;50.836;12.958;2023-12-22T00:08:01;95464.47;;;5.70;82.51
9746;BME280;4912;50.836;12.958;2023-12-22T00:10:32;95475.94;;;5.74;82.64
9746;BME280;4912;50.836;12.958;2023-12-22T00:13:06;95466.97;;;5.73;81.58
9746;BME280;4912;50.836;12.958;2023-12-22T00:15:36;95491.16;;;5.69;81.30
9746;BME280;4912;50.836;12.958;2023-12-22T00:18:07;95498.81;;;5.60;81.55
9746;BME280;4912;50.836;12.958;2023-12-22T00:23:12;95498.34;;;5.67;81.75
9746;BME280;4912;50.836;12.958;2023-12-22T00:25:42;95498.88;;;5.65;81.45
9746;BME280;4912;50.836;12.958;2023-12-22T00:28:16;95513.31;;;5.66;80.68
9746;BME280;4912;50.836;12.958;2023-12-22T00:30:47;95500.56;;;5.57;80.98
9746;BME280;4912;50.836;12.958;2023-12-22T00:33:17;95512.34;;;5.69;80.16
9746;BME280;4912;50.836;12.958;2023-12-22T00:35:48;95499.59;;;5.66;79.53
9746;BME280;4912;50.836;12.958;2023-12-22T00:38:18;95510.84;;;5.68;79.15
9746;BME280;4912;50.836;12.958;2023-12-22T00:40:50;95520.34;;;5.78;78.83
9746;BME280;4912;50.836;12.958;2023-12-22T00:43:24;95507.16;;;5.76;78.22
9746;BME280;4912;50.836;12.958;2023-12-22T00:45:54;95511.34;;;5.72;77.67
9746;BME280;4912;50.836;12.958;2023-12-22T00:48:26;95505.34;;;5.68;78.45
9746;BME280;4912;50.836;12.958;2023-12-22T00:50:57;95525.31;;;5.74;77.38
9746;BME280;4912;50.836;12.958;2023-12-22T00:53:27;95520.59;;;5.74;76.89
9746;BME280;4912;50.836;12.958;2023-12-22T00:56:02;95515.41;;;5.82;76.85
9746;BME280;4912;50.836;12.958;2023-12-22T00:58:36;95512.66;;;5.82;76.11
9746;BME280;4912;50.836;12.958;2023-12-22T01:01:07;95517.88;;;5.80;75.90
9746;BME280;4912;50.836;12.958;2023-12-22T01:03:39;95528.81;;;5.74;75.29
9746;BME280;4912;50.836;12.958;2023-12-22T01:06:09;95541.03;;;5.73;74.76
9746;BME280;4912;50.836;12.958;2023-12-22T01:08:43;95518.09;;;5.71;74.12
9746;BME280;4912;50.836;12.958;2023-12-22T01:11:17;95524.53;;;5.68;73.68
9746;BME280;4912;50.836;12.958;2023-12-22T01:13:55;95531.78;;;5.65;73.19
9746;BME280;4912;50.836;12.958;2023-12-22T01:16:25;95528.78;;;5.69;73.23
9746;BME280;4912;50.836;12.958;2023-12-22T01:18:56;95539.00;;;5.68;72.63
9746;BME280;4912;50.836;12.958;2023-12-22T01:21:27;95537.78;;;5.69;71.55
9746;BME280;4912;50.836;12.958;2023-12-22T01:24:03;95555.47;;;5.68;71.53
9746;BME280;4912;50.836;12.958;2023-12-22T01:26:37;95508.53;;;5.61;71.21
9746;BME280;4912;50.836;12.958;2023-12-22T01:29:17;95530.25;;;5.59;71.30
9746;BME280;4912;50.836;12.958;2023-12-22T01:32:03;95528.25;;;5.59;70.82
9746;BME280;4912;50.836;12.958;2023-12-22T01:34:34;95535.19;;;5.55;70.93
9746;BME280;4912;50.836;12.958;2023-12-22T01:37:04;95525.72;;;5.56;70.92
9746;BME280;4912;50.836;12.958;2023-12-22T01:39:35;95527.00;;;5.60;70.93
9746;BME280;4912;50.836;12.958;2023-12-22T01:42:09;95518.28;;;5.62;70.82
9746;BME280;4912;50.836;12.958;2023-12-22T01:44:42;95537.75;;;5.64;70.88
9746;BME280;4912;50.836;12.958;2023-12-22T01:47:13;95536.75;;;5.67;70.42
9746;BME280;4912;50.836;12.958;2023-12-22T01:49:44;95521.81;;;5.73;70.60
9746;BME280;4912;50.836;12.958;2023-12-22T01:52:16;95531.53;;;5.69;69.91
9746;BME280;4912;50.836;12.958;2023-12-22T01:54:47;95507.13;;;5.71;70.13
9746;BME280;4912;50.836;12.958;2023-12-22T01:57:19;95510.59;;;5.71;69.45
9746;BME280;4912;50.836;12.958;2023-12-22T01:59:53;95515.38;;;5.76;69.60
9746;BME280;4912;50.836;12.958;2023-12-22T02:02:24;95500.19;;;5.81;69.06
9746;BME280;4912;50.836;12.958;2023-12-22T02:04:54;95502.91;;;5.75;68.96
9746;BME280;4912;50.836;12.958;2023-12-22T02:07:25;95507.41;;;5.84;68.96
9746;BME280;4912;50.836;12.958;2023-12-22T02:09:56;95519.66;;;5.83;69.09
9746;BME280;4912;50.836;12.958;2023-12-22T02:12:27;95519.66;;;5.83;69.72
9746;BME280;4912;50.836;12.958;2023-12-22T02:15:05;95511.97;;;5.93;69.41
9746;BME280;4912;50.836;12.958;2023-12-22T02:17:42;95498.00;;;5.91;68.93
9746;BME280;4912;50.836;12.958;2023-12-22T02:20:15;95507.72;;;5.92;69.15
9746;BME280;4912;50.836;12.958;2023-12-22T02:22:53;95509.72;;;5.91;68.44
9746;BME280;4912;50.836;12.958;2023-12-22T02:25:27;95495.94;;;5.80;69.22
9746;BME280;4912;50.836;12.958;2023-12-22T02:27:59;95531.63;;;5.86;69.02
9746;BME280;4912;50.836;12.958;2023-12-22T02:30:38;95532.09;;;5.84;68.34
9746;BME280;4912;50.836;12.958;2023-12-22T02:33:12;95533.59;;;5.85;68.62
9746;BME280;4912;50.836;12.958;2023-12-22T02:35:49;95525.19;;;5.89;68.19
9746;BME280;4912;50.836;12.958;2023-12-22T02:38:23;95519.22;;;5.96;67.68
9746;BME280;4912;50.836;12.958;2023-12-22T02:40:55;95515.72;;;5.95;67.63
9746;BME280;4912;50.836;12.958;2023-12-22T02:43:27;95527.22;;;5.99;68.15
9746;BME280;4912;50.836;12.958;2023-12-22T02:45:58;95529.97;;;5.99;68.21
9746;BME280;4912;50.836;12.958;2023-12-22T02:48:30;95515.22;;;5.97;68.36
9746;BME280;4912;50.836;12.958;2023-12-22T02:51:01;95517.22;;;5.96;68.45
9746;BME280;4912;50.836;12.958;2023-12-22T02:53:34;95519.22;;;5.96;68.23
9746;BME280;4912;50.836;12.958;2023-12-22T02:56:06;95523.94;;;5.95;68.42
9746;BME280;4912;50.836;12.958;2023-12-22T02:58:36;95521.72;;;5.94;68.52
9746;BME280;4912;50.836;12.958;2023-12-22T03:01:07;95512.91;;;5.84;68.33
9746;BME280;4912;50.836;12.958;2023-12-22T03:03:38;95508.47;;;5.92;69.26
9746;BME280;4912;50.836;12.958;2023-12-22T03:06:08;95513.97;;;5.92;69.32
9746;BME280;4912;50.836;12.958;2023-12-22T03:08:42;95485.53;;;5.95;69.75
9746;BME280;4912;50.836;12.958;2023-12-22T03:11:12;95507.22;;;5.88;69.19
9746;BME280;4912;50.836;12.958;2023-12-22T03:13:42;95519.38;;;5.81;69.43
9746;BME280;4912;50.836;12.958;2023-12-22T03:16:13;95482.94;;;5.75;70.28
9746;BME280;4912;50.836;12.958;2023-12-22T03:18:44;95511.13;;;5.75;70.01
9746;BME280;4912;50.836;12.958;2023-12-22T03:21:17;95505.66;;;5.81;70.57
9746;BME280;4912;50.836;12.958;2023-12-22T03:23:51;95517.91;;;5.86;69.65
9746;BME280;4912;50.836;12.958;2023-12-22T03:26:21;95502.41;;;5.77;69.75
9746;BME280;4912;50.836;12.958;2023-12-22T03:28:52;95505.84;;;5.72;69.53
9746;BME280;4912;50.836;12.958;2023-12-22T03:31:23;95520.84;;;5.76;69.61
9746;BME280;4912;50.836;12.958;2023-12-22T03:33:53;95512.38;;;5.74;69.90
9746;BME280;4912;50.836;12.958;2023-12-22T03:36:24;95517.38;;;5.76;70.07
9746;BME280;4912;50.836;12.958;2023-12-22T03:38:57;95519.88;;;5.85;69.90
9746;BME280;4912;50.836;12.958;2023-12-22T03:41:28;95505.75;;;5.98;69.30
9746;BME280;4912;50.836;12.958;2023-12-22T03:43:59;95512.78;;;6.04;69.04
9746;BME280;4912;50.836;12.958;2023-12-22T03:46:29;95491.81;;;6.07;68.66
9746;BME280;4912;50.836;12.958;2023-12-22T03:49:00;95485.09;;;6.13;68.61
9746;BME280;4912;50.836;12.958;2023-12-22T03:51:31;95500.59;;;6.16;68.26
9746;BME280;4912;50.836;12.958;2023-12-22T03:54:04;95499.59;;;6.20;68.93
9746;BME280;4912;50.836;12.958;2023-12-22T03:56:34;95512.78;;;6.04;70.44
9746;BME280;4912;50.836;12.958;2023-12-22T03:59:05;95508.22;;;5.90;73.39
9746;BME280;4912;50.836;12.958;2023-12-22T04:01:35;95498.66;;;5.74;76.19
9746;BME280;4912;50.836;12.958;2023-12-22T04:04:06;95519.66;;;5.41;80.62
9746;BME280;4912;50.836;12.958;2023-12-22T04:06:38;95509.78;;;5.17;85.66
9746;BME280;4912;50.836;12.958;2023-12-22T04:09:11;95463.22;;;4.86;89.92
9746;BME280;4912;50.836;12.958;2023-12-22T04:11:45;95451.34;;;4.63;93.75
9746;BME280;4912;50.836;12.958;2023-12-22T04:14:15;95494.22;;;4.40;97.07
9746;BME280;4912;50.836;12.958;2023-12-22T04:16:46;95495.75;;;4.21;99.24
9746;BME280;4912;50.836;12.958;2023-12-22T04:19:17;95507.28;;;4.05;100.00
9746;BME280;4912;50.836;12.958;2023-12-22T04:21:48;95509.13;;;3.93;100.00
9746;BME280;4912;50.836;12.958;2023-12-22T04:24:22;95519.19;;;3.82;100.00
9746;BME280;4912;50.836;12.958;2023-12-22T04:26:52;95520.22;;;3.64;100.00
9746;BME280;4912;50.836;12.958;2023-12-22T04:29:23;95528.06;;;3.56;100.00
9746;BME280;4912;50.836;12.958;2023-12-22T04:31:53;95523.28;;;3.51;100.00
9746;BME280;4912;50.836;12.958;2023-12-22T04:34:24;95541.94;;;3.53;100.00
9746;BME280;4912;50.836;12.958;2023-12-22T04:36:55;95545.69;;;3.55;100.00
9746;BME280;4912;50.836;12.958;2023-12-22T04:39:28;95551.44;;;3.57;100.00
9746;BME280;4912;50.836;12.958;2023-12-22T04:41:58;95555.78;;;3.49;100.00
9746;BME280;4912;50.836;12.958;2023-12-22T04:44:29;95553.13;;;3.55;100.00
9746;BME280;4912;50.836;12.958;2023-12-22T04:47:00;95543.25;;;3.57;100.00
9746;BME280;4912;50.836;12.958;2023-12-22T04:49:30;95529.66;;;3.63;100.00
9746;BME280;4912;50.836;12.958;2023-12-22T04:52:01;95530.75;;;3.71;100.00
9746;BME280;4912;50.836;12.958;2023-12-22T04:54:34;95517.16;;;3.77;100.00
9746;BME280;4912;50.836;12.958;2023-12-22T04:57:05;95539.91;;;3.88;100.00
9746;BME280;4912;50.836;12.958;2023-12-22T04:59:36;95525.34;;;3.97;100.00
9746;BME280;4912;50.836;12.958;2023-12-22T05:02:06;95532.59;;;4.00;100.00
9746;BME280;4912;50.836;12.958;2023-12-22T05:04:37;95539.91;;;4.08;100.00
9746;BME280;4912;50.836;12.958;2023-12-22T05:07:07;95532.16;;;4.07;99.00
9746;BME280;4912;50.836;12.958;2023-12-22T05:09:41;95542.44;;;4.12;98.42
9746;BME280;4912;50.836;12.958;2023-12-22T05:12:12;95509.59;;;4.12;97.88
9746;BME280;4912;50.836;12.958;2023-12-22T05:14:42;95539.94;;;4.14;97.63
9746;BME280;4912;50.836;12.958;2023-12-22T05:17:13;95540.53;;;4.18;98.00
9746;BME280;4912;50.836;12.958;2023-12-22T05:19:43;95531.81;;;4.20;96.60
9746;BME280;4912;50.836;12.958;2023-12-22T05:22:14;95528.06;;;4.17;95.88
9746;BME280;4912;50.836;12.958;2023-12-22T05:24:47;95501.19;;;4.16;95.49
9746;BME280;4912;50.836;12.958;2023-12-22T05:27:18;95522.44;;;4.26;95.65
9746;BME280;4912;50.836;12.958;2023-12-22T05:29:48;95531.06;;;4.19;93.24
9746;BME280;4912;50.836;12.958;2023-12-22T05:32:19;95535.78;;;4.19;92.13
9746;BME280;4912;50.836;12.958;2023-12-22T05:34:50;95525.09;;;4.21;89.83
9746;BME280;4912;50.836;12.958;2023-12-22T05:37:21;95548.78;;;4.24;89.18
9746;BME280;4912;50.836;12.958;2023-12-22T05:39:54;95525.84;;;4.21;89.05
9746;BME280;4912;50.836;12.958;2023-12-22T05:42:24;95514.22;;;4.26;89.19
9746;BME280;4912;50.836;12.958;2023-12-22T05:44:55;95544.03;;;4.24;88.42
9746;BME280;4912;50.836;12.958;2023-12-22T05:47:28;95522.31;;;4.15;87.73
9746;BME280;4912;50.836;12.958;2023-12-22T05:49:59;95535.28;;;4.20;88.31
9746;BME280;4912;50.836;12.958;2023-12-22T05:52:30;95533.53;;;4.17;88.25
9746;BME280;4912;50.836;12.958;2023-12-22T05:55:04;95534.00;;;4.16;88.44
9746;BME280;4912;50.836;12.958;2023-12-22T05:57:36;95550.72;;;4.18;88.46
9746;BME280;4912;50.836;12.958;2023-12-22T06:00:07;95550.56;;;4.06;88.88
9746;BME280;4912;50.836;12.958;2023-12-22T06:02:39;95557.47;;;4.02;88.88
9746;BME280;4912;50.836;12.958;2023-12-22T06:05:09;95563.97;;;4.04;87.82
9746;BME280;4912;50.836;12.958;2023-12-22T06:07:41;95552.06;;;4.07;87.72
9746;BME280;4912;50.836;12.958;2023-12-22T06:10:14;95554.88;;;4.13;87.00
9746;BME280;4912;50.836;12.958;2023-12-22T06:12:45;95546.19;;;4.15;86.45
9746;BME280;4912;50.836;12.958;2023-12-22T06:15:15;95541.47;;;4.15;86.25
9746;BME280;4912;50.836;12.958;2023-12-22T06:17:46;95548.84;;;4.09;86.46
9746;BME280;4912;50.836;12.958;2023-12-22T06:20:16;95552.63;;;4.11;87.39
9746;BME280;4912;50.836;12.958;2023-12-22T06:22:47;95569.22;;;4.08;89.02
9746;BME280;4912;50.836;12.958;2023-12-22T06:25:20;95562.47;;;4.03;89.92
9746;BME280;4912;50.836;12.958;2023-12-22T06:27:51;95563.56;;;4.11;91.06
9746;BME280;4912;50.836;12.958;2023-12-22T06:30:21;95585.19;;;4.09;91.08
9746;BME280;4912;50.836;12.958;2023-12-22T06:32:52;95576.22;;;4.09;91.01
9746;BME280;4912;50.836;12.958;2023-12-22T06:35:23;95569.53;;;4.10;91.21
9746;BME280;4912;50.836;12.958;2023-12-22T06:37:54;95563.63;;;4.17;91.29
9746;BME280;4912;50.836;12.958;2023-12-22T06:40:34;95547.97;;;4.18;90.80
9746;BME280;4912;50.836;12.958;2023-12-22T06:43:05;95545.66;;;4.10;90.51
9746;BME280;4912;50.836;12.958;2023-12-22T06:45:36;95562.25;;;4.07;89.68
9746;BME280;4912;50.836;12.958;2023-12-22T06:48:07;95559.09;;;4.14;90.04
9746;BME280;4912;50.836;12.958;2023-12-22T06:50:39;95552.00;;;4.22;89.75
9746;BME280;4912;50.836;12.958;2023-12-22T06:53:12;95569.72;;;4.27;89.31
9746;BME280;4912;50.836;12.958;2023-12-22T06:55:54;95575.41;;;4.23;89.00
9746;BME280;4912;50.836;12.958;2023-12-22T06:58:25;95574.44;;;4.26;89.21
9746;BME280;4912;50.836;12.958;2023-12-22T07:00:56;95580.03;;;4.37;89.32
9746;BME280;4912;50.836;12.958;2023-12-22T07:03:27;95579.59;;;4.44;88.50
9746;BME280;4912;50.836;12.958;2023-12-22T07:05:57;95586.00;;;4.36;88.13
9746;BME280;4912;50.836;12.958;2023-12-22T07:08:28;95595.97;;;4.39;89.10
9746;BME280;4912;50.836;12.958;2023-12-22T07:11:01;95589.00;;;4.38;88.78
9746;BME280;4912;50.836;12.958;2023-12-22T07:13:34;95589.03;;;4.43;88.22
9746;BME280;4912;50.836;12.958;2023-12-22T07:16:05;95581.94;;;4.51;87.90
9746;BME280;4912;50.836;12.958;2023-12-22T07:18:37;95591.38;;;4.50;86.87
9746;BME280;4912;50.836;12.958;2023-12-22T07:21:08;95590.16;;;4.51;86.94
9746;BME280;4912;50.836;12.958;2023-12-22T07:23:46;95594.59;;;4.49;86.61
9746;BME280;4912;50.836;12.958;2023-12-22T07:26:19;95603.56;;;4.49;86.53
9746;BME280;4912;50.836;12.958;2023-12-22T07:28:51;95601.09;;;4.51;87.40
9746;BME280;4912;50.836;12.958;2023-12-22T07:31:22;95613.56;;;4.52;88.62
9746;BME280;4912;50.836;12.958;2023-12-22T07:33:54;95601.56;;;4.50;89.82
9746;BME280;4912;50.836;12.958;2023-12-22T07:36:25;95614.97;;;4.68;90.39
9746;BME280;4912;50.836;12.958;2023-12-22T07:38:55;95589.19;;;4.80;89.96
9746;BME280;4912;50.836;12.958;2023-12-22T07:41:30;95604.22;;;4.65;92.52
9746;BME280;4912;50.836;12.958;2023-12-22T07:44:02;95618.00;;;4.50;94.83
9746;BME280;4912;50.836;12.958;2023-12-22T07:46:34;95621.00;;;4.52;96.29
9746;BME280;4912;50.836;12.958;2023-12-22T07:49:05;95623.41;;;4.44;97.09
9746;BME280;4912;50.836;12.958;2023-12-22T07:51:35;95639.78;;;4.39;97.86
9746;BME280;4912;50.836;12.958;2023-12-22T07:54:08;95643.19;;;4.34;98.82
9746;BME280;4912;50.836;12.958;2023-12-22T07:56:41;95637.91;;;4.30;98.75
9746;BME280;4912;50.836;12.958;2023-12-22T07:59:11;95640.19;;;4.32;100.00
9746;BME280;4912;50.836;12.958;2023-12-22T08:01:56;95659.94;;;4.62;100.00
9746;BME280;4912;50.836;12.958;2023-12-22T08:04:27;95675.44;;;4.65;98.26
9746;BME280;4912;50.836;12.958;2023-12-22T08:06:57;95670.63;;;4.39;96.80
9746;BME280;4912;50.836;12.958;2023-12-22T08:09:29;95677.22;;;4.47;98.20
9746;BME280;4912;50.836;12.958;2023-12-22T08:12:03;95677.94;;;4.68;96.83
9746;BME280;4912;50.836;12.958;2023-12-22T08:14:34;95710.88;;;4.74;94.40
9746;BME280;4912;50.836;12.958;2023-12-22T08:17:05;95694.31;;;4.63;93.75
9746;BME280;4912;50.836;12.958;2023-12-22T08:19:36;95697.13;;;4.68;93.90
9746;BME280;4912;50.836;12.958;2023-12-22T08:22:13;95696.78;;;4.61;93.08
9746;BME280;4912;50.836;12.958;2023-12-22T08:24:44;95686.25;;;4.53;92.69
9746;BME280;4912;50.836;12.958;2023-12-22T08:27:17;95693.06;;;4.43;92.85
9746;BME280;4912;50.836;12.958;2023-12-22T08:29:48;95695.13;;;4.48;92.67
9746;BME280;4912;50.836;12.958;2023-12-22T08:32:18;95713.47;;;4.42;92.26
9746;BME280;4912;50.836;12.958;2023-12-22T08:34:49;95695.19;;;4.34;92.67
9746;BME280;4912;50.836;12.958;2023-12-22T08:37:20;95699.78;;;4.42;91.92
9746;BME280;4912;50.836;12.958;2023-12-22T08:39:50;95691.03;;;4.59;91.20
9746;BME280;4912;50.836;12.958;2023-12-22T08:42:24;95712.03;;;4.67;90.31
9746;BME280;4912;50.836;12.958;2023-12-22T08:44:55;95699.03;;;4.62;90.49
9746;BME280;4912;50.836;12.958;2023-12-22T08:47:26;95706.44;;;4.56;91.04
9746;BME280;4912;50.836;12.958;2023-12-22T08:49:56;95703.47;;;4.60;92.60
9746;BME280;4912;50.836;12.958;2023-12-22T08:52:31;95693.78;;;4.59;94.35
9746;BME280;4912;50.836;12.958;2023-12-22T08:55:02;95719.59;;;4.52;95.74
9746;BME280;4912;50.836;12.958;2023-12-22T08:57:35;95703.41;;;4.54;96.39
9746;BME280;4912;50.836;12.958;2023-12-22T09:00:16;95724.78;;;4.50;98.01
9746;BME280;4912;50.836;12.958;2023-12-22T09:02:46;95737.91;;;4.46;97.74
9746;BME280;4912;50.836;12.958;2023-12-22T09:05:17;95738.84;;;4.43;97.95
9746;BME280;4912;50.836;12.958;2023-12-22T09:07:49;95739.44;;;4.47;96.83
9746;BME280;4912;50.836;12.958;2023-12-22T09:10:20;95742.03;;;4.36;96.51
9746;BME280;4912;50.836;12.958;2023-12-22T09:12:53;95761.06;;;4.30;95.67
9746;BME280;4912;50.836;12.958;2023-12-22T09:15:24;95749.97;;;4.19;95.30
9746;BME280;4912;50.836;12.958;2023-12-22T09:17:54;95777.09;;;4.02;96.42
9746;BME280;4912;50.836;12.958;2023-12-22T09:20:25;95759.19;;;3.87;98.33
9746;BME280;4912;50.836;12.958;2023-12-22T09:22:59;95766.63;;;3.71;100.00
9746;BME280;4912;50.836;12.958;2023-12-22T09:25:34;95743.56;;;3.58;100.00
9746;BME280;4912;50.836;12.958;2023-12-22T09:28:07;95758.66;;;3.53;100.00
9746;BME280;4912;50.836;12.958;2023-12-22T09:30:38;95784.28;;;3.56;100.00
9746;BME280;4912;50.836;12.958;2023-12-22T09:33:09;95771.75;;;3.64;100.00
9746;BME280;4912;50.836;12.958;2023-12-22T09:35:47;95772.97;;;3.63;100.00
9746;BME280;4912;50.836;12.958;2023-12-22T09:38:18;95774.56;;;3.69;100.00
9746;BME280;4912;50.836;12.958;2023-12-22T09:40:51;95770.63;;;3.70;100.00
9746;BME280;4912;50.836;12.958;2023-12-22T09:43:25;95805.88;;;3.68;100.00
9746;BME280;4912;50.836;12.958;2023-12-22T09:45:56;95805.59;;;3.66;100.00
9746;BME280;4912;50.836;12.958;2023-12-22T09:48:32;95794.38;;;3.64;100.00
9746;BME280;4912;50.836;12.958;2023-12-22T09:51:04;95802.66;;;3.55;100.00
9746;BME280;4912;50.836;12.958;2023-12-22T09:53:38;95796.91;;;3.53;100.00
9746;BME280;4912;50.836;12.958;2023-12-22T09:56:11;95807.72;;;3.48;100.00
9746;BME280;4912;50.836;12.958;2023-12-22T09:58:45;95803.97;;;3.45;100.00
9746;BME280;4912;50.836;12.958;2023-12-22T10:01:20;95790.00;;;3.43;100.00
9746;BME280;4912;50.836;12.958;2023-12-22T10:03:52;95788.69;;;3.39;100.00
9746;BME280;4912;50.836;12.958;2023-12-22T10:06:23;95787.63;;;3.36;100.00
9746;BME280;4912;50.836;12.958;2023-12-22T10:08:55;95780.97;;;3.37;100.00
9746;BME280;4912;50.836;12.958;2023-12-22T10:11:26;95795.56;;;3.34;100.00
9746;BME280;4912;50.836;12.958;2023-12-22T10:14:02;95790.28;;;3.30;100.00
9746;BME280;4912;50.836;12.958;2023-12-22T10:16:35;95806.09;;;3.26;100.00
9746;BME280;4912;50.836;12.958;2023-12-22T10:19:06;95821.75;;;3.26;100.00
9746;BME280;4912;50.836;12.958;2023-12-22T10:21:38;95823.34;;;3.33;100.00
9746;BME280;4912;50.836;12.958;2023-12-22T10:24:39;95833.72;;;3.28;100.00
9746;BME280;4912;50.836;12.958;2023-12-22T10:27:15;95830.50;;;3.30;100.00
9746;BME280;4912;50.836;12.958;2023-12-22T10:29:54;95838.09;;;3.35;100.00
9746;BME280;4912;50.836;12.958;2023-12-22T10:32:25;95868.47;;;3.66;100.00
9746;BME280;4912;50.836;12.958;2023-12-22T10:34:56;95844.34;;;3.65;100.00
9746;BME280;4912;50.836;12.958;2023-12-22T10:37:27;95821.72;;;3.79;100.00
9746;BME280;4912;50.836;12.958;2023-12-22T10:39:58;95831.53;;;4.00;100.00
9746;BME280;4912;50.836;12.958;2023-12-22T10:42:31;95821.41;;;4.21;100.00
9746;BME280;4912;50.836;12.958;2023-12-22T10:45:07;95814.13;;;4.33;100.00
9746;BME280;4912;50.836;12.958;2023-12-22T10:47:38;95814.66;;;4.51;100.00
9746;BME280;4912;50.836;12.958;2023-12-22T10:50:11;95816.31;;;4.64;100.00
9746;BME280;4912;50.836;12.958;2023-12-22T10:52:49;95809.88;;;4.67;100.00
9746;BME280;4912;50.836;12.958;2023-12-22T10:55:20;95808.44;;;4.71;100.00
9746;BME280;4912;50.836;12.958;2023-12-22T10:57:51;95810.31;;;4.80;100.00
9746;BME280;4912;50.836;12.958;2023-12-22T11:00:24;95819.06;;;5.24;99.51
9746;BME280;4912;50.836;12.958;2023-12-22T11:03:00;95807.69;;;5.52;97.11
9746;BME280;4912;50.836;12.958;2023-12-22T11:05:33;95803.13;;;5.49;95.09
9746;BME280;4912;50.836;12.958;2023-12-22T11:08:07;95796.59;;;5.41;94.18
9746;BME280;4912;50.836;12.958;2023-12-22T11:10:44;95804.19;;;5.31;94.84
9746;BME280;4912;50.836;12.958;2023-12-22T11:13:22;95795.84;;;5.20;94.79
9746;BME280;4912;50.836;12.958;2023-12-22T11:16:00;95790.78;;;5.13;94.86
9746;BME280;4912;50.836;12.958;2023-12-22T11:18:32;95794.09;;;5.17;95.91
9746;BME280;4912;50.836;12.958;2023-12-22T11:21:06;95795.66;;;5.23;95.66
9746;BME280;4912;50.836;12.958;2023-12-22T11:23:37;95774.84;;;5.37;94.65
9746;BME280;4912;50.836;12.958;2023-12-22T11:26:16;95768.38;;;5.34;93.64
9746;BME280;4912;50.836;12.958;2023-12-22T11:28:50;95756.41;;;5.38;92.28
9746;BME280;4912;50.836;12.958;2023-12-22T11:31:25;95752.22;;;5.68;93.78
9746;BME280;4912;50.836;12.958;2023-12-22T11:33:57;95752.19;;;5.88;88.26
9746;BME280;4912;50.836;12.958;2023-12-22T11:36:38;95746.06;;;6.04;88.82
9746;BME280;4912;50.836;12.958;2023-12-22T11:39:10;95732.91;;;6.14;86.64
9746;BME280;4912;50.836;12.958;2023-12-22T11:41:41;95745.34;;;6.09;85.25
9746;BME280;4912;50.836;12.958;2023-12-22T11:44:15;95729.91;;;6.12;85.24
9746;BME280;4912;50.836;12.958;2023-12-22T11:46:48;95728.84;;;6.04;84.14
9746;BME280;4912;50.836;12.958;2023-12-22T11:49:19;95721.09;;;6.02;83.72
9746;BME280;4912;50.836;12.958;2023-12-22T11:51:50;95712.38;;;6.04;84.12
9746;BME280;4912;50.836;12.958;2023-12-22T11:57:32;95715.03;;;5.93;82.77
9746;BME280;4912;50.836;12.958;2023-12-22T12:00:10;95726.44;;;5.86;82.96
9746;BME280;4912;50.836;12.958;2023-12-22T12:03:12;95722.94;;;5.85;84.69
9746;BME280;4912;50.836;12.958;2023-12-22T12:05:42;95712.63;;;5.74;84.33
9746;BME280;4912;50.836;12.958;2023-12-22T12:08:13;95717.59;;;5.70;85.36
9746;BME280;4912;50.836;12.958;2023-12-22T12:10:51;95702.84;;;5.68;84.63
9746;BME280;4912;50.836;12.958;2023-12-22T12:13:24;95698.34;;;5.65;83.33
9746;BME280;4912;50.836;12.958;2023-12-22T12:15:58;95692.59;;;5.63;83.64
9746;BME280;4912;50.836;12.958;2023-12-22T12:18:32;95695.09;;;5.66;83.53
9746;BME280;4912;50.836;12.958;2023-12-22T12:21:06;95673.66;;;5.65;83.21
9746;BME280;4912;50.836;12.958;2023-12-22T12:23:37;95694.63;;;5.68;84.27
9746;BME280;4912;50.836;12.958;2023-12-22T12:26:09;95676.94;;;5.69;83.51
9746;BME280;4912;50.836;12.958;2023-12-22T12:28:44;95672.94;;;5.70;83.36
9746;BME280;4912;50.836;12.958;2023-12-22T12:31:16;95661.41;;;5.66;82.75
9746;BME280;4912;50.836;12.958;2023-12-22T12:33:49;95644.00;;;5.69;83.33
9746;BME280;4912;50.836;12.958;2023-12-22T12:36:20;95649.25;;;5.72;83.47
9746;BME280;4912;50.836;12.958;2023-12-22T12:38:55;95637.56;;;5.77;83.09
9746;BME280;4912;50.836;12.958;2023-12-22T12:41:30;95660.78;;;5.76;82.30
9746;BME280;4912;50.836;12.958;2023-12-22T12:44:04;95666.31;;;5.82;83.25
9746;BME280;4912;50.836;12.958;2023-12-22T12:46:37;95642.13;;;5.86;83.06
9746;BME280;4912;50.836;12.958;2023-12-22T12:49:12;95634.56;;;5.75;83.10
9746;BME280;4912;50.836;12.958;2023-12-22T12:51:47;95622.56;;;5.73;84.13
9746;BME280;4912;50.836;12.958;2023-12-22T12:54:19;95644.03;;;5.74;84.43
9746;BME280;4912;50.836;12.958;2023-12-22T12:56:49;95618.38;;;5.77;85.27
9746;BME280;4912;50.836;12.958;2023-12-22T12:59:20;95617.56;;;5.71;84.72
9746;BME280;4912;50.836;12.958;2023-12-22T13:01:51;95618.59;;;5.74;85.23
9746;BME280;4912;50.836;12.958;2023-12-22T13:04:36;95628.81;;;5.73;85.36
9746;BME280;4912;50.836;12.958;2023-12-22T13:07:08;95611.78;;;5.58;85.14
9746;BME280;4912;50.836;12.958;2023-12-22T13:09:40;95603.34;;;5.36;86.02
9746;BME280;4912;50.836;12.958;2023-12-22T13:12:12;95608.78;;;5.30;87.14
9746;BME280;4912;50.836;12.958;2023-12-22T13:14:43;95613.75;;;5.26;87.44
9746;BME280;4912;50.836;12.958;2023-12-22T13:17:13;95639.94;;;5.27;87.33
9746;BME280;4912;50.836;12.958;2023-12-22T13:19:47;95625.25;;;5.30;87.27
9746;BME280;4912;50.836;12.958;2023-12-22T13:22:18;95632.25;;;5.31;87.69
9746;BME280;4912;50.836;12.958;2023-12-22T13:24:56;95618.41;;;5.46;87.64
9746;BME280;4912;50.836;12.958;2023-12-22T13:27:27;95621.66;;;5.50;87.28
9746;BME280;4912;50.836;12.958;2023-12-22T13:29:57;95616.19;;;5.50;87.25
9746;BME280;4912;50.836;12.958;2023-12-22T13:32:28;95611.94;;;5.49;87.69
9746;BME280;4912;50.836;12.958;2023-12-22T13:35:02;95621.72;;;5.56;88.29
9746;BME280;4912;50.836;12.958;2023-12-22T13:37:33;95629.78;;;5.65;88.61
9746;BME280;4912;50.836;12.958;2023-12-22T13:40:08;95607.09;;;5.70;88.55
9746;BME280;4912;50.836;12.958;2023-12-22T13:42:40;95617.06;;;5.67;87.91
9746;BME280;4912;50.836;12.958;2023-12-22T13:45:11;95620.56;;;5.68;88.34
9746;BME280;4912;50.836;12.958;2023-12-22T13:47:42;95618.88;;;5.76;88.70
9746;BME280;4912;50.836;12.958;2023-12-22T13:50:19;95608.94;;;5.84;88.36
9746;BME280;4912;50.836;12.958;2023-12-22T13:52:52;95612.47;;;5.90;87.41